createdAt,value
2018-05-19T00:00:17.195Z,1.93
2018-05-19T00:02:44.801Z,2.33
2018-05-19T00:05:13.029Z,1.93
2018-05-19T00:07:40.508Z,2.43
2018-05-19T00:10:08.083Z,2.40
2018-05-19T00:12:35.546Z,2.30
2018-05-19T00:15:03.021Z,2.60
2018-05-19T00:17:31.248Z,2.17
2018-05-19T00:19:58.747Z,2.77
2018-05-19T00:22:26.220Z,2.03
2018-05-19T00:24:53.692Z,2.07
2018-05-19T00:27:21.950Z,2.23
2018-05-19T00:29:49.415Z,2.27
2018-05-19T00:32:16.959Z,2.00
2018-05-19T00:34:44.428Z,2.47
2018-05-19T00:37:11.984Z,2.17
2018-05-19T00:39:39.432Z,2.20
2018-05-19T00:42:06.905Z,2.53
2018-05-19T00:44:34.354Z,2.30
2018-05-19T00:47:01.808Z,2.77
2018-05-19T00:49:29.256Z,2.50
2018-05-19T00:51:56.711Z,2.57
2018-05-19T00:54:24.168Z,2.57
2018-05-19T00:56:51.631Z,2.03
2018-05-19T00:59:19.967Z,2.47
2018-05-19T01:01:47.530Z,2.43
2018-05-19T01:04:15.001Z,2.03
2018-05-19T01:06:42.486Z,2.40
2018-05-19T01:09:10.728Z,2.67
2018-05-19T01:11:38.200Z,2.20
2018-05-19T01:14:05.672Z,2.37
2018-05-19T01:16:33.124Z,2.00
2018-05-19T01:19:00.689Z,2.20
2018-05-19T01:21:28.242Z,2.20
2018-05-19T01:23:55.779Z,1.80
2018-05-19T01:26:23.273Z,2.10
2018-05-19T01:28:50.776Z,3.67
2018-05-19T01:31:19.017Z,2.13
2018-05-19T01:33:46.500Z,2.50
2018-05-19T01:36:13.962Z,2.33
2018-05-19T01:38:41.425Z,2.87
2018-05-19T01:41:09.668Z,2.77
2018-05-19T01:43:37.138Z,2.40
2018-05-19T01:46:04.716Z,3.00
2018-05-19T01:48:32.170Z,2.50
2018-05-19T01:50:59.733Z,2.43
2018-05-19T01:53:27.194Z,3.07
2018-05-19T01:55:54.664Z,2.80
2018-05-19T01:58:22.129Z,2.60
2018-05-19T02:00:49.602Z,2.93
2018-05-19T02:03:17.147Z,2.70
2018-05-19T02:05:44.691Z,2.70
2018-05-19T02:08:12.156Z,2.40
2018-05-19T02:10:39.649Z,2.73
2018-05-19T02:13:07.118Z,2.60
2018-05-19T02:15:34.667Z,2.60
2018-05-19T02:18:02.160Z,2.50
2018-05-19T02:20:30.414Z,2.30
2018-05-19T02:22:57.891Z,3.10
2018-05-19T02:25:26.160Z,2.83
2018-05-19T02:27:53.618Z,2.50
2018-05-19T02:30:21.093Z,3.37
2018-05-19T02:32:49.340Z,2.67
2018-05-19T02:35:16.787Z,2.57
2018-05-19T02:37:44.249Z,2.77
2018-05-19T02:40:11.761Z,2.80
2018-05-19T02:42:39.991Z,2.77
2018-05-19T02:45:07.455Z,2.73
2018-05-19T02:47:34.919Z,2.80
2018-05-19T02:50:02.505Z,2.47
2018-05-19T02:52:30.091Z,2.90
2018-05-19T02:54:58.937Z,2.60
2018-05-19T02:57:26.739Z,2.43
2018-05-19T02:59:54.993Z,3.10
2018-05-19T03:02:22.463Z,2.70
2018-05-19T03:04:49.955Z,2.43
2018-05-19T03:07:17.489Z,2.90
2018-05-19T03:09:44.943Z,2.93
2018-05-19T03:12:12.512Z,2.83
2018-05-19T03:14:39.961Z,2.70
2018-05-19T03:17:07.476Z,2.30
2018-05-19T03:19:35.660Z,2.87
2018-05-19T03:22:03.898Z,2.70
2018-05-19T03:24:31.356Z,2.40
2018-05-19T03:26:58.919Z,2.47
2018-05-19T03:29:26.495Z,2.30
2018-05-19T03:31:53.967Z,2.07
2018-05-19T03:34:21.457Z,2.80
2018-05-19T03:36:49.698Z,2.50
2018-05-19T03:39:17.228Z,2.57
2018-05-19T03:41:44.632Z,2.37
2018-05-19T03:44:12.093Z,2.50
2018-05-19T03:46:39.544Z,2.40
2018-05-19T03:49:07.021Z,2.60
2018-05-19T03:51:34.485Z,2.33
2018-05-19T03:54:02.107Z,2.50
2018-05-19T03:56:30.160Z,2.43
2018-05-19T03:59:09.490Z,2.83
2018-05-19T04:01:49.084Z,3.30
2018-05-19T04:04:16.645Z,2.30
2018-05-19T04:06:44.713Z,2.47
2018-05-19T04:09:12.185Z,2.27
2018-05-19T04:11:39.640Z,2.60
2018-05-19T04:14:07.129Z,2.83
2018-05-19T04:16:34.672Z,2.50
2018-05-19T04:19:02.232Z,2.40
2018-05-19T04:21:29.681Z,2.50
2018-05-19T04:23:57.922Z,2.47
2018-05-19T04:26:25.379Z,2.57
2018-05-19T04:28:52.926Z,2.17
2018-05-19T04:31:21.184Z,2.87
2018-05-19T04:33:48.667Z,2.63
2018-05-19T04:36:16.902Z,2.63
2018-05-19T04:38:44.374Z,2.43
2018-05-19T04:41:11.841Z,2.23
2018-05-19T04:43:39.427Z,2.60
2018-05-19T04:46:06.914Z,2.30
2018-05-19T04:48:34.382Z,2.07
2018-05-19T04:51:01.851Z,2.40
2018-05-19T04:53:29.318Z,1.97
2018-05-19T04:55:56.775Z,2.13
2018-05-19T04:58:24.266Z,2.33
2018-05-19T05:00:51.758Z,2.40
2018-05-19T05:03:19.220Z,2.93
2018-05-19T05:05:46.670Z,2.43
2018-05-19T05:08:14.151Z,2.00
2018-05-19T05:10:42.377Z,1.90
2018-05-19T05:13:10.740Z,2.30
2018-05-19T05:15:38.208Z,2.40
2018-05-19T05:18:05.724Z,2.03
2018-05-19T05:20:33.181Z,2.50
2018-05-19T05:23:00.641Z,2.10
2018-05-19T05:25:28.869Z,2.90
2018-05-19T05:27:56.321Z,2.10
2018-05-19T05:30:23.793Z,2.27
2018-05-19T05:32:51.296Z,2.80
2018-05-19T05:35:18.766Z,2.20
2018-05-19T05:37:46.333Z,2.07
2018-05-19T05:40:15.218Z,2.40
2018-05-19T05:42:42.699Z,2.30
2018-05-19T05:45:10.258Z,2.00
2018-05-19T05:47:37.709Z,1.97
2018-05-19T05:50:05.251Z,2.03
2018-05-19T05:52:32.729Z,2.13
2018-05-19T05:55:00.200Z,2.00
2018-05-19T05:57:27.657Z,2.30
2018-05-19T05:59:55.135Z,2.27
2018-05-19T06:02:22.589Z,2.20
2018-05-19T06:04:51.579Z,2.70
2018-05-19T06:07:19.039Z,2.30
2018-05-19T06:09:46.504Z,2.40
2018-05-19T06:12:14.024Z,2.07
2018-05-19T06:14:41.536Z,2.33
2018-05-19T06:17:08.996Z,2.17
2018-05-19T06:19:37.257Z,2.60
2018-05-19T06:22:04.992Z,2.37
2018-05-19T06:24:32.464Z,2.00
2018-05-19T06:26:59.946Z,2.50
2018-05-19T06:29:27.429Z,2.67
2018-05-19T06:31:55.329Z,2.23
2018-05-19T06:34:23.682Z,2.27
2018-05-19T06:36:51.141Z,2.33
2018-05-19T06:39:18.603Z,2.23
2018-05-19T06:41:46.052Z,2.90
2018-05-19T06:44:13.619Z,2.87
2018-05-19T06:46:41.109Z,2.73
2018-05-19T06:49:08.643Z,2.30
2018-05-19T06:51:36.212Z,2.50
2018-05-19T06:54:03.689Z,2.03
2018-05-19T06:56:31.134Z,3.00
2018-05-19T06:59:00.108Z,2.33
2018-05-19T07:01:27.577Z,2.30
2018-05-19T07:03:55.019Z,2.50
2018-05-19T07:06:22.480Z,2.00
2018-05-19T07:08:49.962Z,2.27
2018-05-19T07:11:17.420Z,2.17
2018-05-19T07:13:44.876Z,2.43
2018-05-19T07:16:12.343Z,2.30
2018-05-19T07:18:39.925Z,1.97
2018-05-19T07:21:07.511Z,2.37
2018-05-19T07:23:34.972Z,1.87
2018-05-19T07:26:02.432Z,2.67
2018-05-19T07:28:29.904Z,2.10
2018-05-19T07:30:58.837Z,1.90
2018-05-19T07:33:26.304Z,2.10
2018-05-19T07:35:53.751Z,2.23
2018-05-19T07:38:21.220Z,2.03
2018-05-19T07:40:48.675Z,2.20
2018-05-19T07:43:16.128Z,2.20
2018-05-19T07:45:43.598Z,1.97
2018-05-19T07:48:11.064Z,2.30
2018-05-19T07:50:38.540Z,2.40
2018-05-19T07:53:06.037Z,2.27
2018-05-19T07:55:35.015Z,1.83
2018-05-19T07:58:02.482Z,2.23
2018-05-19T08:00:29.948Z,2.20
2018-05-19T08:02:57.402Z,2.00
2018-05-19T08:05:24.889Z,2.07
2018-05-19T08:07:53.127Z,2.43
2018-05-19T08:10:20.584Z,2.23
2018-05-19T08:12:48.065Z,2.07
2018-05-19T08:15:15.552Z,1.93
2018-05-19T08:17:43.014Z,2.30
2018-05-19T08:20:10.574Z,2.10
2018-05-19T08:22:39.557Z,2.63
2018-05-19T08:25:07.020Z,3.10
2018-05-19T08:27:34.501Z,2.30
2018-05-19T08:30:01.981Z,2.33
2018-05-19T08:32:30.236Z,2.70
2018-05-19T08:34:57.708Z,3.40
2018-05-19T08:37:25.181Z,2.93
2018-05-19T08:39:53.424Z,2.67
2018-05-19T08:42:20.887Z,2.87
2018-05-19T08:44:48.456Z,2.80
2018-05-19T08:47:15.919Z,2.90
2018-05-19T08:49:43.415Z,2.57
2018-05-19T08:52:11.651Z,2.70
2018-05-19T08:54:39.135Z,2.73
2018-05-19T08:57:06.612Z,2.80
2018-05-19T08:59:34.861Z,3.03
2018-05-19T09:02:02.332Z,2.60
2018-05-19T09:04:29.826Z,2.87
2018-05-19T09:06:58.055Z,2.60
2018-05-19T09:09:26.300Z,2.60
2018-05-19T09:11:53.820Z,2.70
2018-05-19T09:14:21.280Z,2.37
2018-05-19T09:16:48.755Z,2.80
2018-05-19T09:19:16.309Z,3.33
2018-05-19T09:21:43.873Z,3.67
2018-05-19T09:24:11.351Z,2.73
2018-05-19T09:26:38.900Z,2.80
2018-05-19T09:29:06.345Z,2.50
2018-05-19T09:31:33.824Z,2.83
2018-05-19T09:34:01.385Z,2.73
2018-05-19T09:36:28.851Z,3.17
2018-05-19T09:38:56.316Z,2.73
2018-05-19T09:41:23.773Z,2.60
2018-05-19T09:43:51.241Z,2.53
2018-05-19T09:46:18.787Z,2.90
2018-05-19T09:48:46.245Z,2.53
2018-05-19T09:51:13.715Z,3.10
2018-05-19T09:53:41.288Z,2.70
2018-05-19T09:56:08.828Z,2.70
2018-05-19T09:58:36.571Z,2.60
2018-05-19T10:01:04.489Z,2.77
2018-05-19T10:03:31.965Z,2.40
2018-05-19T10:06:00.230Z,2.13
2018-05-19T10:08:27.698Z,2.17
2018-05-19T10:10:55.172Z,2.40
2018-05-19T10:13:23.392Z,2.70
2018-05-19T10:15:50.890Z,2.70
2018-05-19T10:18:18.348Z,2.57
2018-05-19T10:20:45.921Z,2.60
2018-05-19T10:23:13.469Z,2.67
2018-05-19T10:25:40.938Z,2.53
2018-05-19T10:28:08.439Z,2.77
2018-05-19T10:30:35.960Z,2.30
2018-05-19T10:33:03.443Z,2.40
2018-05-19T10:35:30.907Z,2.80
2018-05-19T10:37:58.452Z,2.50
2018-05-19T10:40:25.949Z,2.40
2018-05-19T10:42:54.314Z,2.10
2018-05-19T10:45:22.538Z,2.37
2018-05-19T10:47:50.023Z,2.40
2018-05-19T10:50:17.506Z,2.50
2018-05-19T10:52:44.957Z,2.50
2018-05-19T10:55:12.525Z,2.67
2018-05-19T10:57:40.083Z,2.37
2018-05-19T11:00:07.555Z,2.20
2018-05-19T11:02:35.098Z,2.37
2018-05-19T11:05:02.575Z,2.23
2018-05-19T11:07:30.027Z,3.00
2018-05-19T11:09:58.223Z,2.50
2018-05-19T11:12:25.670Z,3.07
2018-05-19T11:14:53.150Z,2.47
2018-05-19T11:17:21.415Z,2.50
2018-05-19T11:19:48.995Z,2.67
2018-05-19T11:22:16.466Z,2.50
2018-05-19T11:24:44.005Z,2.40
2018-05-19T11:27:11.578Z,2.47
2018-05-19T11:29:39.131Z,2.40
2018-05-19T11:32:06.605Z,2.80
2018-05-19T11:34:34.068Z,2.33
2018-05-19T11:37:01.532Z,3.00
2018-05-19T11:39:28.981Z,2.50
2018-05-19T11:41:56.434Z,2.73
2018-05-19T11:44:23.901Z,2.53
2018-05-19T11:46:51.375Z,2.50
2018-05-19T11:49:21.280Z,3.10
2018-05-19T11:51:48.764Z,2.37
2018-05-19T11:54:16.207Z,2.33
2018-05-19T11:56:43.678Z,2.70
2018-05-19T11:59:11.238Z,2.40
2018-05-19T12:01:38.691Z,2.40
2018-05-19T12:04:06.139Z,2.37
2018-05-19T12:06:33.602Z,2.20
2018-05-19T12:09:01.072Z,2.37
2018-05-19T12:11:28.541Z,2.40
2018-05-19T12:13:56.021Z,2.40
2018-05-19T12:16:23.485Z,2.87
2018-05-19T12:18:51.000Z,2.30
2018-05-19T12:21:19.092Z,2.27
2018-05-19T12:23:47.003Z,2.50
2018-05-19T12:26:14.461Z,2.50
2018-05-19T12:28:42.017Z,2.40
2018-05-19T12:31:10.996Z,2.60
2018-05-19T12:33:38.465Z,2.10
2018-05-19T12:36:05.931Z,2.70
2018-05-19T12:38:33.403Z,2.57
2018-05-19T12:41:00.885Z,2.60
2018-05-19T12:43:29.144Z,2.60
2018-05-19T12:45:56.587Z,2.33
2018-05-19T12:48:24.050Z,2.50
2018-05-19T12:50:51.633Z,2.50
2018-05-19T12:53:19.101Z,2.17
2018-05-19T12:55:46.568Z,2.10
2018-05-19T12:58:14.812Z,2.27
2018-05-19T13:00:42.287Z,2.60
2018-05-19T13:03:09.754Z,3.07
2018-05-19T13:05:38.737Z,3.40
2018-05-19T13:08:06.229Z,2.80
2018-05-19T13:10:33.717Z,2.27
2018-05-19T13:13:01.180Z,2.57
2018-05-19T13:15:28.641Z,2.63
2018-05-19T13:17:56.109Z,2.37
2018-05-19T13:20:23.563Z,2.13
2018-05-19T13:22:51.085Z,2.50
2018-05-19T13:25:18.549Z,2.77
2018-05-19T13:27:46.931Z,2.87
2018-05-19T13:30:14.704Z,2.80
2018-05-19T13:32:42.266Z,2.50
2018-05-19T13:35:09.815Z,2.70
2018-05-19T13:37:37.379Z,2.50
2018-05-19T13:40:04.958Z,2.53
2018-05-19T13:42:32.408Z,2.40
2018-05-19T13:44:59.964Z,2.30
2018-05-19T13:47:27.429Z,3.00
2018-05-19T13:49:54.888Z,3.20
2018-05-19T13:52:22.489Z,2.50
2018-05-19T13:54:50.757Z,2.60
2018-05-19T13:57:18.247Z,2.93
2018-05-19T13:59:46.480Z,2.67
2018-05-19T14:02:13.969Z,2.63
2018-05-19T14:04:41.522Z,2.30
2018-05-19T14:07:08.995Z,2.80
2018-05-19T14:09:37.258Z,3.00
2018-05-19T14:12:05.521Z,2.07
2018-05-19T14:14:32.994Z,2.43
2018-05-19T14:17:00.459Z,2.50
2018-05-19T14:19:28.038Z,2.60
2018-05-19T14:21:56.277Z,2.60
2018-05-19T14:24:23.770Z,3.67
2018-05-19T14:26:51.236Z,2.77
2018-05-19T14:29:18.693Z,3.03
2018-05-19T14:31:46.158Z,2.23
2018-05-19T14:34:14.558Z,2.97
2018-05-19T14:36:42.091Z,3.37
2018-05-19T14:39:09.545Z,2.50
2018-05-19T14:41:37.024Z,2.67
2018-05-19T14:44:04.576Z,3.07
2018-05-19T14:46:32.047Z,2.43
2018-05-19T14:48:59.526Z,2.70
2018-05-19T14:51:26.979Z,3.10
2018-05-19T14:53:54.547Z,2.90
2018-05-19T14:56:22.020Z,2.57
2018-05-19T14:58:49.556Z,2.40
2018-05-19T15:01:18.527Z,3.00
2018-05-19T15:03:46.006Z,3.00
2018-05-19T15:06:13.465Z,2.60
2018-05-19T15:08:41.037Z,3.40
2018-05-19T15:11:08.511Z,2.73
2018-05-19T15:13:35.955Z,3.03
2018-05-19T15:16:03.427Z,2.90
2018-05-19T15:18:30.995Z,2.70
2018-05-19T15:20:58.565Z,2.67
2018-05-19T15:23:26.021Z,2.77
2018-05-19T15:25:53.492Z,4.20
2018-05-19T15:28:20.952Z,3.30
2018-05-19T15:30:48.427Z,2.43
2018-05-19T15:33:16.690Z,2.93
2018-05-19T15:35:44.145Z,3.33
2018-05-19T15:38:11.614Z,3.20
2018-05-19T15:40:39.434Z,2.90
2018-05-19T15:43:07.752Z,3.17
2018-05-19T15:45:35.204Z,3.30
2018-05-19T15:48:02.676Z,3.47
2018-05-19T15:50:30.135Z,5.13
2018-05-19T15:52:57.610Z,3.60
2018-05-19T15:55:25.239Z,3.50
2018-05-19T15:57:53.422Z,3.70
2018-05-19T16:00:20.916Z,4.00
2018-05-19T16:02:48.387Z,4.10
2018-05-19T16:05:17.358Z,4.30
2018-05-19T16:07:44.825Z,4.50
2018-05-19T16:10:12.296Z,3.93
2018-05-19T16:12:41.280Z,3.93
2018-05-19T16:15:08.781Z,4.27
2018-05-19T16:17:37.016Z,4.80
2018-05-19T16:20:04.499Z,4.27
2018-05-19T16:22:32.061Z,3.70
2018-05-19T16:24:59.522Z,3.90
2018-05-19T16:27:28.540Z,3.90
2018-05-19T16:29:56.803Z,3.57
2018-05-19T16:32:24.291Z,4.13
2018-05-19T16:34:52.522Z,4.13
2018-05-19T16:37:20.010Z,3.90
2018-05-19T16:39:47.475Z,4.50
2018-05-19T16:42:14.935Z,3.60
2018-05-19T16:44:42.409Z,4.10
2018-05-19T16:47:09.864Z,4.27
2018-05-19T16:49:37.357Z,4.00
2018-05-19T16:52:05.757Z,3.83
2018-05-19T16:54:33.300Z,4.10
2018-05-19T16:57:00.685Z,4.27
2018-05-19T16:59:28.162Z,4.50
2018-05-19T17:01:55.648Z,4.33
2018-05-19T17:04:23.125Z,4.27
2018-05-19T17:06:51.399Z,4.20
2018-05-19T17:09:18.864Z,4.30
2018-05-19T17:11:46.327Z,4.40
2018-05-19T17:14:13.818Z,5.00
2018-05-19T17:16:42.150Z,4.00
2018-05-19T17:19:09.624Z,4.57
2018-05-19T17:21:37.110Z,3.93
2018-05-19T17:24:05.357Z,4.10
2018-05-19T17:26:32.839Z,4.83
2018-05-19T17:29:01.065Z,5.30
2018-05-19T17:31:28.580Z,5.30
2018-05-19T17:33:56.803Z,5.47
2018-05-19T17:36:24.274Z,4.53
2018-05-19T17:38:51.742Z,4.80
2018-05-19T17:41:19.344Z,4.67
2018-05-19T17:43:46.826Z,5.13
2018-05-19T17:46:15.105Z,5.37
2018-05-19T17:48:43.339Z,4.83
2018-05-19T17:51:10.820Z,5.03
2018-05-19T17:53:52.278Z,5.00
2018-05-19T17:56:19.766Z,5.00
2018-05-19T17:58:47.253Z,5.57
2018-05-19T18:01:15.502Z,5.10
2018-05-19T18:03:43.062Z,4.93
2018-05-19T18:06:10.542Z,4.93
2018-05-19T18:08:38.822Z,4.70
2018-05-19T18:11:06.323Z,5.77
2018-05-19T18:13:33.828Z,5.10
2018-05-19T18:16:01.298Z,5.13
2018-05-19T18:18:28.856Z,5.67
2018-05-19T18:20:56.422Z,5.00
2018-05-19T18:23:23.998Z,5.43
2018-05-19T18:25:52.969Z,5.63
2018-05-19T18:28:20.425Z,4.90
2018-05-19T18:30:47.914Z,6.40
2018-05-19T18:33:15.388Z,5.50
2018-05-19T18:35:42.987Z,4.80
2018-05-19T18:38:10.492Z,5.13
2018-05-19T18:40:37.946Z,5.53
2018-05-19T18:43:05.438Z,4.97
2018-05-19T18:45:32.907Z,5.37
2018-05-19T18:48:00.361Z,5.10
2018-05-19T18:50:27.918Z,4.33
2018-05-19T18:53:00.049Z,5.03
2018-05-19T18:55:27.552Z,5.40
2018-05-19T18:57:55.831Z,5.67
2018-05-19T19:00:23.442Z,4.90
2018-05-19T19:02:50.939Z,4.53
2018-05-19T19:05:18.378Z,5.23
2018-05-19T19:07:45.858Z,4.97
2018-05-19T19:10:14.083Z,5.47
2018-05-19T19:12:42.342Z,4.90
2018-05-19T19:15:09.818Z,4.93
2018-05-19T19:17:38.035Z,6.00
2018-05-19T19:20:05.512Z,5.40
2018-05-19T19:22:33.000Z,6.03
2018-05-19T19:25:00.465Z,5.53
2018-05-19T19:27:28.697Z,5.27
2018-05-19T19:29:56.174Z,5.63
2018-05-19T19:32:23.670Z,5.00
2018-05-19T19:34:51.856Z,5.60
2018-05-19T19:37:19.392Z,5.27
2018-05-19T19:39:46.863Z,5.13
2018-05-19T19:42:14.424Z,5.40
2018-05-19T19:44:41.878Z,5.30
2018-05-19T19:47:10.230Z,5.50
2018-05-19T19:49:37.732Z,5.47
2018-05-19T19:52:05.310Z,4.90
2018-05-19T19:54:32.891Z,5.70
2018-05-19T19:57:03.045Z,5.37
2018-05-19T19:59:30.594Z,5.50
2018-05-19T20:01:58.103Z,5.07
2018-05-19T20:04:25.589Z,5.50
2018-05-19T20:06:53.128Z,4.73
2018-05-19T20:09:20.585Z,5.43
2018-05-19T20:11:48.054Z,6.57
2018-05-19T20:14:15.512Z,5.40
2018-05-19T20:16:42.989Z,4.80
2018-05-19T20:19:10.456Z,5.53
2018-05-19T20:21:37.925Z,5.10
2018-05-19T20:24:05.475Z,5.57
2018-05-19T20:26:32.941Z,4.90
2018-05-19T20:29:00.518Z,5.53
2018-05-19T20:31:28.788Z,5.83
2018-05-19T20:33:56.252Z,5.57
2018-05-19T20:36:23.829Z,6.13
2018-05-19T20:38:51.289Z,4.97
2018-05-19T20:41:18.732Z,5.60
2018-05-19T20:43:46.368Z,5.80
2018-05-19T20:46:13.757Z,5.97
2018-05-19T20:48:41.237Z,6.03
2018-05-19T20:51:08.706Z,6.20
2018-05-19T20:53:36.255Z,5.37
2018-05-19T20:56:03.711Z,6.23
2018-05-19T20:58:31.172Z,5.43
2018-05-19T21:00:58.728Z,6.83
2018-05-19T21:03:26.455Z,6.57
2018-05-19T21:05:53.940Z,6.27
2018-05-19T21:08:21.422Z,6.20
2018-05-19T21:10:48.891Z,5.20
2018-05-19T21:13:16.375Z,7.00
2018-05-19T21:15:44.635Z,5.13
2018-05-19T21:18:12.113Z,5.67
2018-05-19T21:20:39.574Z,5.50
2018-05-19T21:23:07.844Z,6.70
2018-05-19T21:25:36.816Z,7.70
2018-05-19T21:28:04.399Z,6.87
2018-05-19T21:30:31.958Z,6.07
2018-05-19T21:32:59.519Z,6.13
2018-05-19T21:35:27.003Z,5.23
2018-05-19T21:37:54.486Z,6.00
2018-05-19T21:40:22.724Z,7.40
2018-05-19T21:42:50.183Z,5.70
2018-05-19T21:45:17.648Z,6.43
2018-05-19T21:47:45.111Z,5.73
2018-05-19T21:50:12.572Z,5.57
2018-05-19T21:52:40.039Z,6.60
2018-05-19T21:55:07.528Z,6.43
2018-05-19T21:57:35.922Z,5.80
2018-05-19T22:00:03.265Z,6.57
2018-05-19T22:02:31.497Z,6.70
2018-05-19T22:04:58.967Z,6.37
2018-05-19T22:07:26.597Z,7.40
2018-05-19T22:09:54.117Z,6.73
2018-05-19T22:12:21.567Z,6.40
2018-05-19T22:14:49.139Z,6.57
2018-05-19T22:17:18.124Z,6.53
2018-05-19T22:19:45.698Z,6.57
2018-05-19T22:22:13.151Z,6.93
2018-05-19T22:24:40.726Z,6.40
2018-05-19T22:27:08.194Z,6.57
2018-05-19T22:29:35.658Z,5.00
2018-05-19T22:32:03.885Z,6.80
2018-05-19T22:34:31.378Z,6.87
2018-05-19T22:36:59.385Z,6.90
2018-05-19T22:39:27.635Z,7.20
2018-05-19T22:41:55.102Z,6.70
2018-05-19T22:44:22.665Z,7.43
2018-05-19T22:46:50.239Z,7.47
2018-05-19T22:49:17.701Z,7.10
2018-05-19T22:51:45.160Z,6.97
2018-05-19T22:54:12.626Z,6.90
2018-05-19T22:56:40.102Z,7.37
2018-05-19T22:59:07.556Z,7.20
2018-05-19T23:01:35.114Z,7.67
2018-05-19T23:04:02.591Z,7.60
2018-05-19T23:06:30.046Z,7.10
2018-05-19T23:08:57.596Z,7.63
2018-05-19T23:11:25.061Z,6.63
2018-05-19T23:13:52.611Z,7.10
2018-05-19T23:16:21.363Z,6.70
2018-05-19T23:18:48.832Z,7.70
2018-05-19T23:21:16.324Z,7.63
2018-05-19T23:23:43.811Z,6.70
2018-05-19T23:26:11.356Z,6.80
2018-05-19T23:28:38.829Z,6.83
2018-05-19T23:31:06.393Z,7.90
2018-05-19T23:33:33.851Z,7.77
2018-05-19T23:36:01.401Z,7.57
2018-05-19T23:38:28.859Z,7.33
2018-05-19T23:40:56.430Z,7.00
2018-05-19T23:43:23.907Z,8.07
2018-05-19T23:45:51.370Z,7.17
2018-05-19T23:48:18.863Z,7.83
2018-05-19T23:50:47.159Z,7.30
2018-05-19T23:53:14.724Z,7.60
2018-05-19T23:55:42.297Z,7.83
2018-05-19T23:58:10.491Z,7.27
